Latest Coastal Weather Observations for Walpole North

IDW60701

Issued at 2:12 pm WST Thursday 29 January 2015 (issued every 10 minutes, with the page automatically refreshed every 10 minutes)

About coastal observations | Map of coastal stations | Coastal observations for WA | Marine services | Other Formats
Station Details ID: 009998 Name: NORTH WALPOLE Lat: -34.95 Lon: 116.72 Height: 73.0 m
Data from the previous 72 hours. | See also: Recent months at Walpole North
Date/Time
WST
Temp

°C
Wind Pressure Rain
since 9am
mm
Weather Cloud Vis
km
Sea
Height
m
Swell
Dir
 
Speed
knots
Gust
knots
hPa Trend Height
m
Period
s
Dir
29/02:00pm 26.2 SSE 6 10 1011.4 - 0.0 - - - - - - -
29/01:30pm 24.0 SSE 8 12 1011.6 - 0.0 - - - - - - -
29/01:00pm 25.0 S 8 13 1011.7 - 0.0 - - - - - - -
29/12:30pm 24.9 S 7 12 1011.7 - 0.0 - - - - - - -
29/12:00pm 25.9 S 7 12 1011.8 - 0.0 - - - - - - -
29/11:30am 25.7 SSE 9 14 1011.6 - 0.0 - - - - - - -
29/11:00am 25.9 SE 8 13 1011.7 - 0.0 - - - - - - -
29/10:30am 25.9 SSE 7 11 1011.7 - 0.0 - - - - - - -
29/10:00am 26.3 SSE 6 10 1011.6 - 0.0 - - - - - - -
29/09:30am 27.4 W 5 8 1011.6 - 0.0 - - - - - - -
29/09:00am 27.0 WSW 4 8 1011.3 - 0.4 - - - - - - -
29/08:30am 25.7 NW 2 5 1011.0 - 0.4 - - - - - - -
29/08:00am 25.2 CALM 0 0 1010.9 - 0.4 - - - - - - -
29/07:30am 24.3 E 4 7 1010.4 - 0.4 - - - - - - -
29/07:00am 23.0 ENE 3 5 1010.3 - 0.4 - - - - - - -
29/06:30am 20.2 CALM 0 0 1010.3 - 0.4 - - - - - - -
29/06:00am 19.3 CALM 0 0 1010.1 - 0.4 - - - - - - -
29/05:30am 19.6 SSE 2 6 1009.9 - 0.4 - - - - - - -
29/05:00am 19.6 SSE 3 7 1009.5 - 0.4 - - - - - - -
29/04:30am 19.3 SSE 1 5 1009.2 - 0.4 - - - - - - -
29/04:00am 19.6 SSE 1 5 1008.8 - 0.4 - - - - - - -
29/03:30am 19.9 SE 2 6 1008.6 - 0.4 - - - - - - -
29/03:00am 20.6 CALM 0 5 1008.4 - 0.4 - - - - - - -
29/02:30am 21.4 WNW 6 11 1008.2 - 0.4 - - - - - - -
29/02:00am 23.2 NW 7 11 1007.3 - 0.4 - - - - - - -
29/01:30am 25.1 NNE 10 15 1006.5 - 0.4 - - - - - - -
29/01:00am 24.8 NNE 9 15 1006.7 - 0.4 - - - - - - -
29/12:30am 25.2 NNE 9 16 1006.8 - 0.4 - - - - - - -
29/12:00am 23.5 NE 7 12 1006.9 - 0.4 - - - - - - -
 
Date/Time
WST
Temp

°C
Wind Pressure Rain
since 9am
mm
Weather Cloud Vis
km
Sea
Height
m
Swell
Dir
 
Speed
knots
Gust
knots
hPa Trend Height
m
Period
s
Dir
28/11:30pm 24.0 NE 9 15 1007.1 - 0.4 - - - - - - -
28/11:00pm 24.0 NE 9 14 1007.2 - 0.4 - - - - - - -
28/10:30pm 24.0 NE 9 13 1007.4 - 0.4 - - - - - - -
28/10:00pm 24.7 NE 11 17 1007.5 - 0.4 - - - - - - -
28/09:30pm 24.8 NE 11 18 1008.0 - 0.4 - - - - - - -
28/09:00pm 24.5 NE 10 16 1008.2 - 0.4 - - - - - - -
28/08:30pm 24.5 NE 13 21 1007.5 - 0.4 - - - - - - -
28/08:00pm 24.9 NE 10 18 1007.7 - 0.4 - - - - - - -
28/07:30pm 24.7 NNE 13 18 1008.1 - 0.4 - - - - - - -
28/07:00pm 24.9 NNE 13 19 1008.5 - 0.4 - - - - - - -
28/06:30pm 24.7 NNE 12 19 1008.3 - 0.4 - - - - - - -
28/06:00pm 23.0 N 7 13 1009.0 - 0.4 Recent precip. - - - - - -
28/05:30pm 23.7 N 9 15 1009.3 - 0.2 - - - - - - -
28/05:00pm 28.8 N 9 22 1008.4 - 0.0 - - - - - - -
28/04:57pm 29.3 N 6 22 1008.1 - 0.0 - - - - - - -
28/04:30pm 30.7 CALM 0 0 1007.0 - 0.0 - - - - - - -
28/04:00pm 29.3 NNE 2 7 1006.7 - 0.0 - - - - - - -
28/03:30pm 28.5 SSW 3 6 1006.6 - 0.0 - - - - - - -
28/03:00pm 26.7 S 5 7 1006.6 - 0.0 - - - - - - -
28/02:30pm 29.1 S 7 10 1006.7 - 0.0 - - - - - - -
28/02:00pm 29.2 S 5 9 1006.7 - 0.0 - - - - - - -
28/01:30pm 29.1 SSW 6 10 1007.2 - 0.0 - - - - - - -
28/01:00pm 26.9 SSE 7 10 1007.0 - 0.0 - - - - - - -
28/12:30pm 28.3 SSE 7 13 1007.2 - 0.0 - - - - - - -
28/12:00pm 30.6 S 7 11 1007.3 - 0.0 - - - - - - -
28/11:30am 31.9 SSE 7 11 1007.4 - 0.0 - - - - - - -
28/11:00am 35.8 NE 4 7 1007.7 - 0.0 - - - - - - -
28/10:30am 33.5 N 6 12 1008.2 - 0.0 - - - - - - -
28/10:00am 32.4 N 5 13 1008.2 - 0.0 - - - - - - -
28/09:30am 30.9 NNE 7 13 1008.3 - 0.0 - - - - - - -
28/09:00am 28.1 NE 5 9 1008.6 - 0.8 - - - - - - -
28/08:30am 25.9 NNE 4 10 1008.8 - 0.8 - - - - - - -
28/08:00am 23.4 ENE 7 12 1009.1 - 0.8 - - - - - - -
28/07:30am 20.6 ENE 9 13 1009.4 - 0.8 - - - - - - -
28/07:00am 19.5 NE 6 13 1009.4 - 0.8 - - - - - - -
28/06:30am 18.4 NE 10 16 1008.9 - 0.8 - - - - - - -
28/06:00am 17.9 ENE 9 15 1009.1 - 0.8 - - - - - - -
28/05:30am 17.9 ENE 8 12 1009.1 - 0.8 - - - - - - -
28/05:00am 17.7 ENE 9 13 1008.8 - 0.8 - - - - - - -
28/04:30am 18.2 ENE 6 9 1008.9 - 0.8 - - - - - - -
28/04:00am 18.3 ENE 7 9 1008.7 - 0.8 - - - - - - -
28/03:30am 19.0 NE 8 15 1008.7 - 0.8 - - - - - - -
28/03:00am 19.2 NE 7 11 1008.8 - 0.8 - - - - - - -
28/02:30am 19.4 NE 7 13 1009.0 - 0.8 - - - - - - -
28/02:00am 19.7 NE 7 11 1009.2 - 0.8 - - - - - - -
28/01:30am 20.0 NE 7 11 1009.2 - 0.8 - - - - - - -
28/01:00am 20.1 NE 10 16 1009.1 - 0.4 - - - - - - -
28/12:30am 20.4 NE 11 16 1009.3 - 0.4 - - - - - - -
28/12:00am 20.6 NE 11 16 1009.4 - 0.4 - - - - - - -
 
Date/Time
WST
Temp

°C
Wind Pressure Rain
since 9am
mm
Weather Cloud Vis
km
Sea
Height
m
Swell
Dir
 
Speed
knots
Gust
knots
hPa Trend Height
m
Period
s
Dir
27/11:30pm 20.9 NE 11 17 1009.6 - 0.4 - - - - - - -
27/11:00pm 21.4 NE 12 17 1009.5 - 0.4 - - - - - - -
27/10:30pm 22.0 NE 11 17 1009.6 - 0.4 - - - - - - -
27/10:00pm 22.6 NE 11 16 1009.8 - 0.0 - - - - - - -
27/09:30pm 23.6 NE 11 17 1009.9 - 0.0 - - - - - - -
27/09:00pm 23.9 NE 9 13 1009.9 - 0.0 - - - - - - -
27/08:30pm 23.9 ENE 7 11 1010.0 - 0.0 - - - - - - -
27/08:00pm 20.7 CALM 0 0 1009.8 - 0.0 - - - - - - -
27/07:30pm 21.6 CALM 0 0 1009.6 - 0.0 - - - - - - -
27/07:00pm 23.1 CALM 0 0 1009.6 - 0.0 - - - - - - -
27/06:30pm 24.7 SSW 4 6 1009.2 - 0.0 - - - - - - -
27/06:00pm 26.8 SSE 4 8 1009.2 - 0.0 - - - - - - -
27/05:30pm 29.1 ESE 6 10 1009.1 - 0.0 - - - - - - -
27/05:00pm 28.9 SE 10 15 1009.1 - 0.0 - - - - - - -
27/04:30pm 29.4 SE 10 14 1009.3 - 0.0 - - - - - - -
27/04:00pm 30.1 SE 9 13 1009.2 - 0.0 - - - - - - -
27/03:30pm 30.7 SSE 7 14 1009.2 - 0.0 - - - - - - -
27/03:00pm 31.5 SSE 7 14 1009.2 - 0.0 - - - - - - -
27/02:30pm 30.5 SSW 10 15 1009.2 - 0.0 - - - - - - -
27/02:00pm 29.3 S 11 17 1009.4 - 0.0 - - - - - - -
27/01:30pm 29.2 S 11 15 1009.4 - 0.0 - - - - - - -
27/01:00pm 28.3 SSW 9 13 1010.0 - 0.0 - - - - - - -
27/12:30pm 27.7 S 9 13 1010.3 - 0.0 - - - - - - -
27/12:00pm 26.4 S 9 13 1010.6 - 0.0 - - - - - - -
27/11:30am 29.2 S 8 12 1010.8 - 0.0 - - - - - - -
27/11:00am 30.2 E 5 7 1010.9 - 0.0 - - - - - - -
27/10:30am 29.2 N 6 9 1011.2 - 0.0 - - - - - - -
27/10:00am 27.6 ENE 5 9 1011.5 - 0.0 - - - - - - -
27/09:30am 25.6 E 5 8 1011.6 - 0.0 - - - - - - -
27/09:00am 24.0 NE 6 9 1011.8 - 0.0 - - - - - - -
27/08:30am 21.9 ENE 7 11 1011.9 - 0.0 - - - - - - -
27/08:00am 20.0 NE 7 12 1012.0 - 0.0 - - - - - - -
27/07:30am 18.5 NE 8 15 1012.1 - 0.0 - - - - - - -
27/07:00am 17.3 NE 9 15 1012.1 - 0.0 - - - - - - -
27/06:30am 16.2 ENE 9 16 1012.0 - 0.0 - - - - - - -
27/06:00am 15.3 ENE 10 16 1011.9 - 0.0 - - - - - - -
27/05:30am 14.8 ENE 9 15 1011.9 - 0.0 - - - - - - -
27/05:00am 14.7 ENE 8 13 1011.8 - 0.0 - - - - - - -
27/04:30am 14.7 ENE 10 14 1011.5 - 0.0 - - - - - - -
27/04:00am 14.5 ENE 8 14 1011.7 - 0.0 - - - - - - -
27/03:30am 14.6 ENE 8 14 1012.0 - 0.0 - - - - - - -
27/03:00am 14.6 NE 7 13 1012.0 - 0.0 - - - - - - -
27/02:30am 14.7 NE 9 15 1011.9 - 0.0 - - - - - - -
27/02:00am 15.0 NE 10 17 1011.9 - 0.0 - - - - - - -
27/01:30am 15.1 NE 9 15 1012.3 - 0.0 - - - - - - -
27/01:00am 15.0 ENE 8 15 1012.7 - 0.0 - - - - - - -
27/12:30am 15.5 ENE 9 17 1012.8 - 0.0 - - - - - - -
27/12:00am 15.6 ENE 10 15 1013.0 - 0.0 - - - - - - -
 
Date/Time
WST
Temp

°C
Wind Pressure Rain
since 9am
mm
Weather Cloud Vis
km
Sea
Height
m
Swell
Dir
 
Speed
knots
Gust
knots
hPa Trend Height
m
Period
s
Dir
26/11:30pm 16.0 ENE 10 16 1013.4 - 0.0 - - - - - - -
26/11:00pm 16.4 ENE 9 16 1013.5 - 0.0 - - - - - - -
26/10:30pm 16.7 E 7 13 1013.7 - 0.0 - - - - - - -
26/10:00pm 17.3 ENE 8 14 1013.7 - 0.0 - - - - - - -
26/09:30pm 17.9 E 8 13 1013.8 - 0.0 - - - - - - -
26/09:00pm 18.6 ENE 8 15 1013.7 - 0.0 - - - - - - -
26/08:30pm 19.4 E 8 12 1013.5 - 0.0 - - - - - - -
26/08:00pm 19.9 E 8 11 1013.4 - 0.0 - - - - - - -
26/07:30pm 19.8 ESE 5 9 1013.4 - 0.0 - - - - - - -
26/07:00pm 20.4 SE 7 11 1013.2 - 0.0 - - - - - - -
26/06:30pm 21.4 SE 7 10 1013.0 - 0.0 - - - - - - -
26/06:00pm 21.8 SE 10 14 1013.0 - 0.0 - - - - - - -
26/05:30pm 21.9 SE 11 18 1013.2 - 0.0 - - - - - - -
26/05:00pm 22.3 ESE 13 19 1013.2 - 0.0 - - - - - - -
26/04:30pm 22.7 ESE 12 18 1013.4 - 0.0 - - - - - - -
26/04:00pm 22.9 ESE 12 17 1013.5 - 0.0 - - - - - - -
26/03:30pm 24.1 SE 14 20 1013.6 - 0.0 - - - - - - -
26/03:00pm 24.5 SE 15 22 1013.9 - 0.0 - - - - - - -
26/02:30pm 24.3 SE 16 23 1014.1 - 0.0 - - - - - - -

Other Formats:

Comma delimited format used in spreadsheet applications
http://www.bom.gov.au/fwo/IDW60701/IDW60701.95647.axf

JavaScript Object Notation format (JSON) in row-major order
http://www.bom.gov.au/fwo/IDW60701/IDW60701.95647.json